Greenfield, IN

9:27 AM EDT on September 29, 2016 (GMT -0400)
Copeland Farms | | Change Station

Elev 899 ft 39.81 °N, 85.79 °W | Updated 28 seconds ago

Overcast
Overcast
55.4 °F
Feels Like 55.4 °F
N
4.2
Wind Variable Wind from SW

Today
High -- | Low -- °F
--% Chance of Precip.
Yesterday
High -- | Low -- °F
Precip. -- in
Pressure 30.06 in
Visibility 10.0 miles
Clouds Scattered Clouds 800 ft
Scattered Clouds 3100 ft
Overcast 7500 ft
Dew Point 55 °F
Humidity 99%
Rainfall 0.00 in
Snow Depth Not available.
7:37 AM 7:27 PM
Waning Crescent, 2% visible
METAR KMQJ 291315Z AUTO 02007KT 10SM SCT008 SCT031 OVC075 13/11 A3006 RMK AO1
Pressure 30.06 in
Visibility 10.0 miles
Clouds Scattered Clouds 800 ft
Scattered Clouds 3100 ft
Overcast 7500 ft
Dew Point 55 °F
Humidity 99%
Rainfall 0.00 in
Snow Depth Not available.
7:37 AM 7:27 PM
Waning Crescent, 2% visible
METAR KMQJ 291315Z AUTO 02007KT 10SM SCT008 SCT031 OVC075 13/11 A3006 RMK AO1

10-Day Weather Forecast

Almanac

Astronomy

Sep. 29, 2016 Rise Set
Actual Time
Civil Twilight
Nautical Twilight
Astronomical Twilight
Moon
Length of Visible Light
Length of Day
Tomorrow will be .
, % of the Moon is Illuminated

Today's Extremes

State Highs State Lows

Community

WunderPhotos

Upload Photos

1,942,470 photos uploaded!

WunderBlog® & News

Nearby

Air Quality

  Air Quality AQ Index Pollutant
Not available.

Snow Depth

Station Depth Elevation

Earthquake Activity

City Distance Mag. Time & Date
Minimum magnitude displayed is 2.5.

Coastal Water Temperatures

Place Temperature

Stations

Nearby Weather Stations

Station Location Temp. Windchill Dew Point Humidity Wind Precip. Elev Updated Type
                   

Watches & Warnings

There are currently no watches in effect.